Terminal Aerodrome Forecast
Issued by NWS

Home | Current Version | Previous Version | Graphics & Text | Print | Product List | Glossary On
Versions: 1 2 3 4 5 6 7 8 9 10 11 12 13 14 15 16 17 18 19 20 21 22
000
FTUS43 KDVN 270824 AAC
TAFBRL
TAF AMD
KBRL 270824Z 2708/2806 04006KT 6SM BR VCTS SCT015 OVC035CB
      TEMPO 2708/2711 4SM RA BR BKN006 OVC015
     FM271500 20005KT P6SM FEW035 SCT250=

USA.gov is the U.S. government's official web portal to all federal, state and local government web resources and services.